Terminal Aerodrome Forecast
Issued by NWS Northern Indiana

Home | Current Version | Previous Version | Text Only | Print | Product List | Glossary On
Versions: 1 2 3 4 5 6 7 8 9 10 11 12 13 14 15 16 17
000
FTUS43 KIWX 231353 AAA
TAFFWA
TAF AMD
KFWA 231353Z 2314/2412 29015G22KT P6SM SCT015 OVC060
      TEMPO 2315/2317 3SM TSRA OVC020CB
     FM231700 27012KT P6SM OVC020
     FM232200 30009KT P6SM OVC050=

USA.gov is the U.S. government's official web portal to all federal, state and local government web resources and services.